Time;durP1;ratioP1;P1;durP2;ratioP2;P2;SDS_P1;SDS_P2;PMS_P1;PMS_P2;Temp;Humidity;BMP_temperature;BMP_pressure;BME280_temperature;BME280_humidity;BME280_pressure;Samples;Min_cycle;Max_cycle;Signal;HPM_P1;HPM_P2
2022/04/19 07:59:25;;;;;;;4.95;3.25;;;;;;;6.07;63.38;94259.84;4229996;27;20457;-51
2022/04/19 08:02:30;;;;;;;3.72;2.60;;;;;;;6.09;63.43;94260.53;4132717;27;20192;-51
2022/04/19 08:04:33;;;;;;;3.00;1.90;;;;;;;6.38;62.40;94267.38;4036904;28;88963;-56
2022/04/19 08:06:36;;;;;;;3.33;2.28;;;;;;;6.49;61.30;94259.38;4169762;28;20519;-53
2022/04/19 08:08:38;;;;;;;4.80;2.90;;;;;;;6.65;62.28;94256.16;4170787;28;20395;-55
2022/04/19 08:10:39;;;;;;;3.50;2.45;;;;;;;6.81;61.40;94259.88;4170211;28;20494;-53
2022/04/19 08:12:41;;;;;;;3.58;2.75;;;;;;;6.90;60.94;94259.00;4171698;28;20060;-53
2022/04/19 08:14:43;;;;;;;3.63;2.80;;;;;;;6.98;61.09;94265.09;4173935;28;20053;-57
2022/04/19 08:16:46;;;;;;;4.00;2.55;;;;;;;6.91;60.78;94265.84;4172654;28;20124;-50
2022/04/19 08:18:47;;;;;;;3.42;2.38;;;;;;;6.90;59.10;94262.41;4169545;28;20163;-50
2022/04/19 08:20:51;;;;;;;3.20;2.03;;;;;;;6.93;59.02;94256.94;4169913;28;20120;-49
2022/04/19 08:22:53;;;;;;;2.88;2.25;;;;;;;7.08;58.60;94262.44;4171048;28;20118;-52
2022/04/19 08:24:55;;;;;;;4.15;2.70;;;;;;;7.12;58.33;94253.38;4168434;28;20110;-52
2022/04/19 08:26:56;;;;;;;4.53;3.10;;;;;;;7.20;58.06;94250.00;4166883;28;20061;-53
2022/04/19 08:28:58;;;;;;;5.53;3.17;;;;;;;7.41;58.89;94252.31;4171848;28;20045;-49
2022/04/19 08:31:00;;;;;;;3.53;2.80;;;;;;;7.55;57.25;94249.16;4165785;28;20466;-52
2022/04/19 08:33:02;;;;;;;4.18;3.00;;;;;;;7.69;57.31;94241.75;4165937;28;20057;-51
2022/04/19 08:35:05;;;;;;;4.03;2.67;;;;;;;7.83;58.37;94248.19;4163675;28;20053;-50
2022/04/19 08:37:09;;;;;;;4.40;3.38;;;;;;;7.65;57.64;94254.28;4165213;28;20140;-52
2022/04/19 08:39:11;;;;;;;;;;;;;;;7.06;56.68;94245.34;4152187;28;20049;-51
2022/04/19 08:41:13;;;;;;;5.32;3.35;;;;;;;6.99;56.75;94247.72;4187867;28;19983;-51
2022/04/19 08:43:15;;;;;;;3.90;2.75;;;;;;;6.78;55.53;94245.38;4170757;28;20129;-52
2022/04/19 08:45:19;;;;;;;4.32;3.28;;;;;;;6.90;56.54;94240.78;4188485;28;20061;-52
2022/04/19 08:47:23;;;;;;;4.85;3.65;;;;;;;7.04;57.39;94242.06;4179843;28;20527;-54
2022/04/19 08:49:25;;;;;;;3.78;2.40;;;;;;;7.41;54.68;94235.84;4169932;28;20061;-53
2022/04/19 08:51:28;;;;;;;6.07;2.95;;;;;;;7.82;54.97;94238.75;4169913;28;20088;-53
2022/04/19 08:58:12;;;;;;;5.53;3.60;;;;;;;7.54;53.76;94237.09;4169117;28;20050;-53
2022/04/19 09:00:14;;;;;;;6.07;3.45;;;;;;;6.69;56.95;94236.69;4171787;28;20052;-56
2022/04/19 09:02:23;;;;;;;4.60;3.38;;;;;;;6.43;57.58;94244.38;4171199;28;20501;-54
2022/04/19 09:04:25;;;;;;;6.40;3.42;;;;;;;6.66;58.15;94236.94;4171215;28;20061;-51
2022/04/19 09:06:51;;;;;;;4.43;3.22;;;;;;;7.10;56.89;94233.66;4170538;28;20484;-52
2022/04/19 09:09:12;;;;;;;3.63;2.88;;;;;;;7.59;54.25;94231.41;4173298;28;20044;-54
2022/04/19 09:11:14;;;;;;;5.95;2.85;;;;;;;8.05;54.24;94232.03;3823343;28;10000940;-52
2022/04/19 09:13:26;;;;;;;4.35;3.17;;;;;;;8.30;53.98;94233.00;4167217;28;20124;-50
2022/04/19 09:15:40;;;;;;;4.22;3.30;;;;;;;8.32;53.24;94240.66;4176031;28;20668;-55
2022/04/19 09:17:42;;;;;;;25.92;9.65;;;;;;;7.58;51.66;94243.63;4176257;28;20063;-48
2022/04/19 09:19:44;;;;;;;10.88;5.95;;;;;;;7.54;52.66;94237.09;4162483;28;20140;-47
2022/04/19 09:21:46;;;;;;;5.47;3.80;;;;;;;7.64;51.73;94236.19;4159476;28;20053;-51
2022/04/19 09:23:53;;;;;;;4.38;3.38;;;;;;;7.03;52.93;94230.81;4164944;28;20214;-49
2022/04/19 09:25:57;;;;;;;10.60;6.13;;;;;;;6.95;53.97;94223.75;4172036;28;20057;-52
2022/04/19 09:28:01;;;;;;;4.80;3.38;;;;;;;6.48;54.43;94231.72;4158503;28;20045;-46
2022/04/19 09:30:27;;;;;;;6.38;4.18;;;;;;;6.91;54.86;94232.00;4164591;28;20049;-44
2022/04/19 09:32:29;;;;;;;7.03;4.63;;;;;;;7.22;53.56;94224.63;4155208;28;20080;-54
2022/04/19 09:34:36;;;;;;;4.80;3.90;;;;;;;7.67;52.85;94225.44;4155562;28;20579;-53
2022/04/19 09:38:58;;;;;;;6.32;4.25;;;;;;;7.44;51.90;94227.72;4176044;28;20501;-55
2022/04/19 09:41:00;;;;;;;4.05;3.58;;;;;;;7.59;52.06;94221.00;4175758;28;20072;-52
2022/04/19 09:43:23;;;;;;;7.65;3.45;;;;;;;8.04;51.59;94222.56;4153293;28;20064;-49
2022/04/19 09:45:28;;;;;;;5.53;3.83;;;;;;;8.40;49.96;94225.03;4149515;28;20061;-54
2022/04/19 09:47:29;;;;;;;4.82;3.70;;;;;;;8.73;49.89;94212.09;4142485;28;20050;-53
2022/04/19 09:50:04;;;;;;;4.95;3.90;;;;;;;8.95;49.37;94211.50;4159689;28;20053;-47
2022/04/19 09:52:07;;;;;;;4.45;3.45;;;;;;;9.20;48.18;94211.53;4122254;28;20053;-52
2022/04/19 09:54:20;;;;;;;5.68;4.03;;;;;;;9.53;48.32;94203.66;4149353;28;20058;-53
2022/04/19 09:56:23;;;;;;;6.63;3.47;;;;;;;9.63;47.76;94207.75;4144133;28;20080;-52
2022/04/19 09:58:46;;;;;;;6.13;3.67;;;;;;;9.29;48.10;94210.56;4143803;28;20459;-55
2022/04/19 10:00:49;;;;;;;7.18;3.97;;;;;;;8.92;48.30;94203.16;4144165;28;20584;-57
2022/04/19 10:09:52;;;;;;;4.47;3.20;;;;;;;9.66;43.62;94200.56;4159903;28;20464;-52
2022/04/19 10:11:54;;;;;;;4.28;3.35;;;;;;;9.88;44.07;94202.50;4140487;28;20037;-57
2022/04/19 10:13:57;;;;;;;5.07;3.45;;;;;;;10.11;43.98;94202.59;4160057;28;20118;-57
2022/04/19 10:16:00;;;;;;;4.35;2.88;;;;;;;10.17;41.55;94190.63;4160009;28;20119;-53
2022/04/19 10:18:05;;;;;;;5.37;2.73;;;;;;;10.36;41.11;94189.44;4166666;28;20061;-59
2022/04/19 10:20:10;;;;;;;5.18;3.58;;;;;;;10.62;41.99;94178.69;4167708;28;20288;-55
2022/04/19 10:22:12;;;;;;;6.18;3.20;;;;;;;10.50;39.88;94195.78;4158527;28;20053;-53
2022/04/19 10:24:15;;;;;;;5.38;3.38;;;;;;;10.49;39.79;94178.44;4175455;28;20064;-56
2022/04/19 10:26:18;;;;;;;2.95;2.28;;;;;;;10.55;37.92;94183.78;4176170;28;20114;-56
2022/04/19 10:28:27;;;;;;;3.47;2.33;;;;;;;10.54;37.52;94176.94;4176350;28;20144;-56
2022/04/19 10:30:32;;;;;;;5.63;2.40;;;;;;;10.47;37.48;94183.81;4159877;28;20049;-57
2022/04/19 10:32:34;;;;;;;3.22;2.42;;;;;;;10.50;36.36;94193.97;4152804;28;20510;-55
2022/04/19 10:34:37;;;;;;;2.90;1.83;;;;;;;10.66;36.26;94177.34;4175720;28;20059;-56
2022/04/19 10:36:39;;;;;;;3.13;2.08;;;;;;;10.42;35.19;94171.25;4147306;28;20057;-53
2022/04/19 10:38:43;;;;;;;4.72;2.00;;;;;;;10.31;35.62;94170.81;4159800;28;20045;-53
2022/04/19 10:40:51;;;;;;;2.85;2.25;;;;;;;10.51;36.50;94172.03;4127502;28;20097;-51
2022/04/19 10:43:12;;;;;;;5.43;2.17;;;;;;;10.41;36.68;94171.41;4144781;28;20406;-56
2022/04/19 10:45:13;;;;;;;3.15;2.10;;;;;;;10.16;36.83;94179.34;4167367;28;20045;-53
2022/04/19 10:47:20;;;;;;;2.65;1.95;;;;;;;9.93;37.26;94183.66;4176858;28;20456;-52
2022/04/19 10:49:25;;;;;;;3.92;2.22;;;;;;;9.83;37.83;94181.25;4170820;28;20045;-55
2022/04/19 10:51:27;;;;;;;3.17;2.13;;;;;;;9.77;38.02;94177.50;4158325;28;20131;-53
2022/04/19 10:53:34;;;;;;;13.95;3.75;;;;;;;9.64;39.13;94190.28;4158382;28;20061;-52
2022/04/19 10:56:05;;;;;;;3.83;2.47;;;;;;;9.64;39.38;94200.75;4158964;28;20156;-51
2022/04/19 10:58:21;;;;;;;5.70;2.28;;;;;;;9.52;39.42;94181.13;4159152;28;20484;-54
2022/04/19 11:00:27;;;;;;;3.97;2.47;;;;;;;9.45;39.08;94185.41;4159384;28;20049;-53
2022/04/19 11:03:00;;;;;;;3.03;2.20;;;;;;;9.74;38.73;94185.66;4147216;28;20057;-54
2022/04/19 11:05:03;;;;;;;3.05;2.28;;;;;;;10.13;38.86;94179.69;4158749;28;20053;-52
2022/04/19 11:07:43;;;;;;;5.05;2.72;;;;;;;10.55;39.68;94178.56;4158716;28;20060;-54
2022/04/19 11:10:00;;;;;;;4.57;2.50;;;;;;;10.85;39.35;94182.16;4159123;28;20095;-52
2022/04/19 11:12:09;;;;;;;4.93;2.42;;;;;;;10.89;38.22;94180.00;4144521;28;20062;-54
2022/04/19 11:14:16;;;;;;;3.47;2.38;;;;;;;10.96;38.49;94172.25;4143946;28;20054;-51
2022/04/19 11:16:18;;;;;;;2.75;2.20;;;;;;;10.93;38.40;94178.69;4150592;28;20049;-53
2022/04/19 11:18:32;;;;;;;3.95;2.40;;;;;;;10.57;37.28;94175.78;4157684;28;20140;-50
2022/04/19 11:20:49;;;;;;;2.50;2.10;;;;;;;10.61;37.14;94177.06;4122982;28;20122;-53
2022/04/19 11:22:58;;;;;;;3.28;2.05;;;;;;;10.58;36.47;94166.91;4143033;28;20053;-51
2022/04/19 11:25:06;;;;;;;3.45;2.22;;;;;;;10.59;37.08;94161.50;4141340;28;20054;-52
2022/04/19 11:27:07;;;;;;;4.47;2.50;;;;;;;10.57;37.41;94163.47;4142767;28;20061;-54
2022/04/19 11:29:09;;;;;;;2.33;2.00;;;;;;;10.28;37.52;94166.69;4130428;28;20104;-52
2022/04/19 11:31:13;;;;;;;3.20;2.28;;;;;;;10.22;37.38;94156.94;4126298;28;20133;-53
2022/04/19 11:33:26;;;;;;;3.22;2.22;;;;;;;10.23;37.28;94163.78;4126454;28;20046;-55
2022/04/19 11:35:32;;;;;;;3.17;2.10;;;;;;;10.21;38.17;94161.31;4144070;28;20057;-54
2022/04/19 11:37:34;;;;;;;3.85;2.40;;;;;;;10.31;37.57;94162.97;4157707;28;20072;-52
2022/04/19 11:48:47;;;;;;;5.03;3.13;;;;;;;9.56;34.67;94169.38;4155265;28;20118;-53
2022/04/19 11:50:48;;;;;;;3.47;2.50;;;;;;;8.53;37.13;94168.00;4141453;28;20089;-52
2022/04/19 11:52:51;;;;;;;3.05;1.90;;;;;;;8.13;39.25;94200.78;4142260;28;20050;-53
2022/04/19 11:54:55;;;;;;;4.25;2.40;;;;;;;7.63;40.46;94182.41;4142289;28;20045;-53
2022/04/19 11:57:03;;;;;;;2.53;2.05;;;;;;;7.57;43.02;94194.25;4146489;28;20111;-49
2022/04/19 11:59:05;;;;;;;4.10;2.63;;;;;;;7.72;43.77;94202.34;4158914;28;20458;-52
2022/04/19 12:01:09;;;;;;;3.53;2.40;;;;;;;7.70;44.92;94217.31;4163738;28;20061;-54
2022/04/19 12:03:24;;;;;;;;;;;;;;;7.03;48.96;94207.38;4175469;28;20547;-53
2022/04/19 12:05:26;;;;;;;5.78;3.30;;;;;;;6.95;49.26;94192.50;4165259;28;19924;-54
2022/04/19 12:07:28;;;;;;;8.95;4.22;;;;;;;7.34;48.60;94188.75;4157881;28;20114;-52
2022/04/19 12:09:31;;;;;;;5.05;2.80;;;;;;;7.44;44.58;94186.03;4158630;28;20107;-52
2022/04/19 12:11:36;;;;;;;5.50;2.60;;;;;;;7.86;44.52;94182.72;4139789;28;20481;-55
2022/04/19 12:13:41;;;;;;;4.32;2.92;;;;;;;8.20;42.94;94185.31;4157519;28;20045;-52
2022/04/19 12:15:43;;;;;;;4.05;2.65;;;;;;;8.64;42.30;94176.50;4161017;28;20107;-51
2022/04/19 12:17:45;;;;;;;5.93;3.30;;;;;;;8.51;40.48;94164.72;4159812;28;20049;-50
2022/04/19 12:19:47;;;;;;;6.20;2.70;;;;;;;8.45;40.31;94167.16;4157693;28;20526;-52
2022/04/19 12:21:48;;;;;;;3.20;2.08;;;;;;;8.25;39.95;94166.56;4157037;28;20053;-54
2022/04/19 12:23:53;;;;;;;4.35;1.98;;;;;;;8.10;39.17;94154.13;4170739;28;20049;-48
2022/04/19 12:25:58;;;;;;;3.15;2.08;;;;;;;8.49;38.21;94134.53;4174902;28;20045;-56
2022/04/19 12:28:00;;;;;;;3.45;2.42;;;;;;;8.72;38.51;94138.16;4174911;28;20411;-53
2022/04/19 12:30:14;;;;;;;3.85;1.80;;;;;;;9.20;37.63;94130.50;4158367;28;20060;-52
2022/04/19 12:32:16;;;;;;;3.10;2.50;;;;;;;9.55;37.16;94131.09;4158361;28;20054;-49
2022/04/19 12:34:17;;;;;;;3.58;2.40;;;;;;;9.73;37.42;94134.34;4157143;28;20049;-51
2022/04/19 12:36:22;;;;;;;5.22;2.30;;;;;;;9.54;36.05;94132.09;4157010;28;20187;-50
2022/04/19 12:38:31;;;;;;;2.80;2.00;;;;;;;9.23;35.45;94128.38;4158417;28;20045;-51
2022/04/19 12:40:33;;;;;;;4.47;2.35;;;;;;;9.07;36.25;94144.06;4168138;28;20053;-51
2022/04/19 12:42:49;;;;;;;3.95;2.20;;;;;;;9.27;36.08;94146.34;4174660;28;20523;-52
2022/04/19 12:45:08;;;;;;;4.22;1.77;;;;;;;9.33;35.73;94148.31;4174469;28;20233;-47
2022/04/19 12:47:11;;;;;;;2.72;1.98;;;;;;;9.44;35.41;94127.03;4174552;28;20131;-54
2022/04/19 12:49:25;;;;;;;4.07;2.20;;;;;;;9.59;36.07;94129.78;4176095;28;20057;-49
2022/04/19 12:51:26;;;;;;;3.55;2.20;;;;;;;9.72;36.35;94132.72;4157630;28;20119;-50
2022/04/19 12:53:35;;;;;;;7.30;2.25;;;;;;;9.50;36.61;94133.41;4161619;28;20046;-53
2022/04/19 12:56:14;;;;;;;3.35;2.35;;;;;;;9.30;38.05;94139.00;4145968;28;20517;-55
2022/04/19 12:58:34;;;;;;;4.78;2.67;;;;;;;8.84;38.47;94150.91;4177742;28;20107;-58
2022/04/19 13:00:36;;;;;;;4.35;2.88;;;;;;;8.42;39.44;94139.59;4166386;28;20053;-55
2022/04/19 13:02:40;;;;;;;4.25;2.90;;;;;;;8.67;39.84;94135.22;4161156;28;20052;-57
2022/04/19 13:04:43;;;;;;;3.05;1.98;;;;;;;8.44;38.40;94148.06;4159995;28;20053;-55
2022/04/19 13:13:45;;;;;;;3.97;2.40;;;;;;;8.46;39.55;94130.47;4158298;28;20038;-54
2022/04/19 13:15:47;;;;;;;2.60;1.83;;;;;;;8.46;39.42;94132.25;4158119;28;20127;-58
2022/04/19 13:17:49;;;;;;;3.50;2.58;;;;;;;8.81;39.56;94128.53;4164435;28;20128;-58
2022/04/19 13:19:50;;;;;;;6.82;2.97;;;;;;;8.84;38.61;94132.63;4163369;28;20135;-57
2022/04/19 13:21:52;;;;;;;3.63;2.05;;;;;;;9.06;37.99;94123.34;4172518;28;20057;-57
2022/04/19 13:23:55;;;;;;;5.22;3.45;;;;;;;9.19;38.31;94127.06;4172011;28;20049;-58
2022/04/19 13:25:57;;;;;;;5.70;2.80;;;;;;;9.02;39.48;94138.53;4160513;28;20473;-49
2022/04/19 13:27:58;;;;;;;9.18;4.05;;;;;;;8.91;39.42;94134.44;4174367;28;20049;-47
2022/04/19 13:30:00;;;;;;;10.73;4.38;;;;;;;8.94;39.17;94126.25;4176971;28;20087;-52
2022/04/19 13:32:03;;;;;;;5.05;2.80;;;;;;;9.07;37.89;94138.03;4153592;28;20058;-52
2022/04/19 13:34:05;;;;;;;5.40;2.80;;;;;;;9.34;38.17;94145.53;4165312;28;20053;-48
2022/04/19 13:36:06;;;;;;;5.45;2.85;;;;;;;9.05;39.78;94132.94;4159606;28;20053;-52
2022/04/19 13:38:23;;;;;;;4.30;2.38;;;;;;;9.25;38.64;94146.53;4167389;28;20300;-49
2022/04/19 13:40:26;;;;;;;5.65;2.78;;;;;;;9.58;37.66;94143.88;4164934;28;20073;-52
2022/04/19 13:42:28;;;;;;;4.93;2.60;;;;;;;9.78;37.43;94141.69;4160156;28;20049;-51
2022/04/19 13:44:31;;;;;;;3.47;1.98;;;;;;;9.93;35.90;94131.34;4160701;28;20109;-49
2022/04/19 13:46:33;;;;;;;5.22;2.95;;;;;;;10.08;36.50;94128.84;4167137;28;20445;-50
2022/04/19 13:48:35;;;;;;;3.70;2.22;;;;;;;10.48;36.39;94129.66;4176450;28;20091;-51
2022/04/19 13:50:36;;;;;;;7.30;2.50;;;;;;;10.51;35.79;94124.88;4176128;28;20440;-48
2022/04/19 13:52:38;;;;;;;6.35;3.55;;;;;;;10.66;35.55;94131.00;4176713;28;20053;-50
2022/04/19 13:54:40;;;;;;;4.18;2.70;;;;;;;10.54;36.48;94126.34;4177149;28;20049;-55
2022/04/19 13:56:43;;;;;;;5.35;2.45;;;;;;;10.57;35.29;94118.97;4176845;28;20049;-54
2022/04/19 13:58:45;;;;;;;3.53;2.38;;;;;;;10.64;35.76;94124.31;4176799;28;20064;-52
2022/04/19 14:00:47;;;;;;;5.03;2.50;;;;;;;10.38;35.06;94119.41;4158502;28;20061;-52
2022/04/19 14:02:49;;;;;;;3.75;2.33;;;;;;;10.33;35.10;94109.44;4172865;28;20049;-49
2022/04/19 14:04:50;;;;;;;5.38;3.67;;;;;;;10.32;35.23;94120.88;4159037;28;20057;-50
2022/04/19 14:06:53;;;;;;;3.92;2.60;;;;;;;10.37;34.70;94117.78;4158791;28;20508;-51
2022/04/19 14:08:55;;;;;;;4.50;2.50;;;;;;;10.60;34.24;94113.41;4173083;28;20049;-50
2022/04/19 14:10:59;;;;;;;4.20;2.40;;;;;;;10.50;33.90;94117.22;4176778;28;20176;-51
2022/04/19 14:13:01;;;;;;;4.22;2.90;;;;;;;10.14;33.20;94115.88;4176542;28;20053;-50
2022/04/19 14:15:04;;;;;;;3.95;1.83;;;;;;;9.79;33.75;94117.19;4164840;28;20059;-51
2022/04/19 14:17:06;;;;;;;5.20;2.17;;;;;;;10.07;34.27;94112.31;4155602;28;20065;-51
2022/04/19 14:19:08;;;;;;;5.68;2.30;;;;;;;9.79;34.14;94114.56;4165214;28;20102;-54
2022/04/19 14:21:10;;;;;;;3.65;2.50;;;;;;;9.84;34.14;94105.19;4168498;28;20057;-54
2022/04/19 14:23:12;;;;;;;3.40;2.47;;;;;;;10.04;34.65;94103.03;4160148;28;20045;-57
2022/04/19 14:25:13;;;;;;;8.77;2.30;;;;;;;10.04;34.08;94103.03;4158460;28;20207;-57
2022/04/19 14:27:15;;;;;;;4.13;2.10;;;;;;;10.12;33.52;94107.38;4159894;28;20057;-47
2022/04/19 14:34:18;;;;;;;3.63;2.30;;;;;;;9.09;33.78;94109.94;4169492;28;20049;-55
2022/04/19 14:36:20;;;;;;;3.95;2.65;;;;;;;9.18;34.29;94114.16;4158666;28;20124;-54
2022/04/19 14:38:22;;;;;;;2.92;2.28;;;;;;;9.50;33.41;94108.06;4167934;28;20143;-56
2022/04/19 14:40:23;;;;;;;3.65;2.67;;;;;;;9.53;33.36;94112.16;4175974;28;20401;-56
2022/04/19 14:42:25;;;;;;;6.75;3.10;;;;;;;9.55;34.39;94120.66;4159699;28;20045;-57
2022/04/19 14:44:28;;;;;;;6.30;2.53;;;;;;;9.67;34.35;94110.66;4159294;28;20045;-53
2022/04/19 14:46:30;;;;;;;9.40;2.23;;;;;;;9.11;34.31;94126.28;4159465;28;20110;-53
2022/04/19 14:48:32;;;;;;;4.82;2.63;;;;;;;8.87;35.17;94125.28;4159048;28;20061;-54
2022/04/19 14:52:13;;;;;;;4.38;2.83;;;;;;;9.04;35.19;94120.06;4158615;28;20046;-56
2022/04/19 14:52:56;;;;;;;4.85;2.58;;;;;;;8.85;34.23;94129.84;4159652;28;20541;-55
2022/04/19 14:54:57;;;;;;;4.35;2.95;;;;;;;9.04;35.61;94125.31;4159427;28;20053;-53
2022/04/19 14:56:59;;;;;;;4.07;2.67;;;;;;;9.09;34.75;94123.81;4159286;28;20049;-55
2022/04/19 14:59:01;;;;;;;5.70;2.55;;;;;;;8.77;34.41;94124.63;4141316;28;20565;-55
2022/04/19 15:01:05;;;;;;;5.43;2.75;;;;;;;8.91;34.55;94124.00;4158788;28;20726;-58
2022/04/19 15:03:09;;;;;;;5.85;2.33;;;;;;;8.92;34.58;94125.59;4174274;28;20307;-56
2022/04/19 15:05:11;;;;;;;2.97;2.40;;;;;;;8.92;34.49;94133.44;4158303;28;20383;-58
2022/04/19 15:07:13;;;;;;;5.82;3.42;;;;;;;9.13;35.87;94126.94;4158423;28;20053;-51
2022/04/19 15:09:15;;;;;;;7.47;4.15;;;;;;;8.99;35.47;94126.59;4159337;28;20504;-56
2022/04/19 15:11:18;;;;;;;9.57;3.50;;;;;;;8.97;34.83;94119.88;4174589;28;20095;-53
2022/04/19 15:13:20;;;;;;;5.75;2.85;;;;;;;9.33;34.08;94120.34;4157890;28;20433;-60
2022/04/19 15:15:21;;;;;;;4.47;2.10;;;;;;;9.38;34.33;94112.03;4170278;28;20053;-55
2022/04/19 15:17:23;;;;;;;7.28;4.30;;;;;;;9.54;34.11;94121.66;4157761;28;20126;-56
2022/04/19 15:19:25;;;;;;;3.72;2.28;;;;;;;9.49;33.35;94116.09;4158379;28;20540;-54
2022/04/19 15:21:27;;;;;;;8.60;3.30;;;;;;;9.42;33.79;94118.53;4158325;28;20443;-53
2022/04/19 15:23:29;;;;;;;4.97;2.10;;;;;;;9.79;33.92;94117.19;4158854;28;20149;-52
2022/04/19 15:25:31;;;;;;;7.95;3.30;;;;;;;9.80;34.30;94116.97;4159165;28;20057;-57
2022/04/19 15:27:32;;;;;;;7.55;3.17;;;;;;;9.59;34.87;94121.94;4159285;28;20127;-55
2022/04/19 15:29:34;;;;;;;9.43;4.43;;;;;;;9.46;34.76;94126.88;4158962;28;20536;-55
2022/04/19 15:31:36;;;;;;;5.55;3.67;;;;;;;9.28;34.66;94133.13;4158880;28;20413;-56
2022/04/19 15:33:38;;;;;;;4.60;2.38;;;;;;;9.12;34.96;94127.88;4158408;28;20049;-53
2022/04/19 15:35:40;;;;;;;3.67;2.20;;;;;;;9.31;35.05;94127.53;4168882;28;20107;-52
2022/04/19 15:37:41;;;;;;;7.30;2.78;;;;;;;9.72;34.47;94118.81;4175091;28;20064;-56
2022/04/19 15:39:43;;;;;;;6.97;2.60;;;;;;;9.75;34.12;94121.91;4163925;28;20053;-51
2022/04/19 15:41:45;;;;;;;3.28;2.17;;;;;;;9.49;34.65;94131.78;4154148;28;20057;-56
2022/04/19 15:43:46;;;;;;;4.30;2.75;;;;;;;9.55;34.94;94125.88;4159125;28;20119;-57
2022/04/19 15:45:48;;;;;;;5.00;2.97;;;;;;;9.52;35.34;94129.66;4162453;28;20052;-56
2022/04/19 15:47:50;;;;;;;4.88;2.70;;;;;;;9.53;35.13;94122.59;4175808;28;20594;-58
2022/04/19 15:49:52;;;;;;;5.22;2.53;;;;;;;9.60;35.50;94121.78;4175085;28;20114;-57
2022/04/19 15:51:55;;;;;;;5.07;3.00;;;;;;;9.57;35.52;94121.28;4175123;28;20071;-50
2022/04/19 15:53:57;;;;;;;6.97;3.73;;;;;;;9.46;35.13;94129.50;4170738;28;20091;-51
2022/04/19 15:56:00;;;;;;;3.60;2.75;;;;;;;9.49;35.75;94121.34;4158744;28;20294;-49
2022/04/19 15:58:02;;;;;;;7.18;3.67;;;;;;;9.73;35.32;94131.72;4170846;28;20049;-52
2022/04/19 16:00:05;;;;;;;4.88;3.33;;;;;;;9.81;35.01;94133.53;4166525;28;20057;-53
2022/04/19 16:02:06;;;;;;;6.05;2.80;;;;;;;10.00;34.12;94127.06;4167583;28;20104;-57
2022/04/19 16:04:08;;;;;;;4.60;3.17;;;;;;;10.20;33.09;94127.50;4157422;28;20041;-54
2022/04/19 16:06:11;;;;;;;5.45;3.33;;;;;;;10.25;33.43;94133.81;4158975;28;20087;-55
2022/04/19 16:08:12;;;;;;;5.53;3.30;;;;;;;10.04;33.85;94133.59;4158561;28;20057;-56
2022/04/19 16:10:14;;;;;;;5.65;3.25;;;;;;;9.86;34.60;94139.06;4165608;28;20057;-54
2022/04/19 16:12:19;;;;;;;5.20;3.17;;;;;;;9.71;34.96;94136.31;4159959;28;20064;-58
2022/04/19 16:14:21;;;;;;;5.88;3.25;;;;;;;9.63;34.93;94138.94;4157667;28;20042;-58
2022/04/19 16:23:24;;;;;;;5.07;3.17;;;;;;;9.12;35.38;94146.19;4159522;28;20532;-59
2022/04/19 16:25:27;;;;;;;5.07;3.15;;;;;;;9.10;35.20;94156.81;4160910;28;20215;-59
2022/04/19 16:27:29;;;;;;;5.15;3.58;;;;;;;9.31;35.11;94147.66;4162311;28;20115;-59
2022/04/19 16:29:31;;;;;;;9.93;4.22;;;;;;;9.56;34.94;94143.22;4166459;28;20106;-58
2022/04/19 16:31:33;;;;;;;8.25;4.50;;;;;;;9.84;34.93;94147.06;4160607;28;20590;-56
2022/04/19 16:33:37;;;;;;;7.93;3.13;;;;;;;9.83;34.68;94140.22;4170296;28;20056;-55
2022/04/19 16:35:38;;;;;;;6.57;3.22;;;;;;;9.98;34.01;94142.09;4175598;28;20246;-56
2022/04/19 16:37:41;;;;;;;6.93;3.55;;;;;;;10.33;34.69;94145.28;4158478;28;20061;-56
2022/04/19 16:39:43;;;;;;;5.03;3.30;;;;;;;10.12;33.34;94149.25;4175598;28;20076;-58
2022/04/19 16:41:45;;;;;;;3.92;2.42;;;;;;;9.54;34.36;94153.81;4177937;28;20378;-56
2022/04/19 16:43:46;;;;;;;5.93;3.40;;;;;;;9.31;35.34;94153.69;4177506;28;20131;-56
2022/04/19 16:45:49;;;;;;;5.65;2.97;;;;;;;9.29;35.00;94154.84;4177765;28;20212;-57
2022/04/19 16:47:51;;;;;;;5.25;3.55;;;;;;;9.49;35.66;94156.13;4178307;28;20651;-57
2022/04/19 16:49:53;;;;;;;7.03;4.28;;;;;;;9.50;34.89;94151.72;4171900;28;20129;-60
2022/04/19 16:51:55;;;;;;;9.23;4.38;;;;;;;9.50;34.63;94164.78;4153398;28;20049;-59
2022/04/19 16:53:57;;;;;;;5.90;3.85;;;;;;;9.40;34.48;94167.59;4177400;28;20414;-57
2022/04/19 16:55:58;;;;;;;5.90;4.57;;;;;;;9.38;35.91;94167.75;4172599;28;20145;-58
2022/04/19 16:58:01;;;;;;;10.88;5.32;;;;;;;9.39;35.18;94164.13;4165971;28;20051;-59
2022/04/19 17:00:05;;;;;;;11.95;6.10;;;;;;;9.27;35.19;94164.63;4171891;28;20049;-59
2022/04/19 17:02:07;;;;;;;;;;;;;;;9.18;35.70;94162.06;4161577;28;20422;-59
2022/04/19 17:04:11;;;;;;;10.45;6.95;;;;;;;9.01;36.51;94168.22;4159991;28;20459;-59
2022/04/19 17:06:13;;;;;;;12.75;6.95;;;;;;;9.08;36.78;94164.00;4160032;28;20061;-57
2022/04/19 17:08:15;;;;;;;12.57;6.72;;;;;;;9.22;36.50;94171.16;4161128;28;20129;-55
2022/04/19 17:10:17;;;;;;;11.88;6.90;;;;;;;9.19;36.40;94168.91;4160834;28;20111;-58
2022/04/19 17:12:18;;;;;;;12.35;6.13;;;;;;;9.04;36.27;94173.13;4160784;28;20180;-58
2022/04/19 17:14:22;;;;;;;12.07;5.90;;;;;;;8.99;36.92;94176.25;4160785;28;20060;-58
2022/04/19 17:16:25;;;;;;;10.75;4.85;;;;;;;8.89;39.30;94175.56;4160706;28;20045;-58
2022/04/19 17:18:27;;;;;;;8.27;4.40;;;;;;;8.91;40.56;94172.81;4158642;28;20536;-58
2022/04/19 17:20:29;;;;;;;8.52;4.03;;;;;;;8.89;41.39;94183.41;4159253;28;20052;-60
2022/04/19 17:22:30;;;;;;;6.38;3.53;;;;;;;8.89;42.46;94185.22;4160014;28;20285;-59
2022/04/19 17:24:32;;;;;;;5.35;3.15;;;;;;;8.92;42.13;94185.69;4170394;28;20110;-58
2022/04/19 17:26:34;;;;;;;6.75;3.75;;;;;;;9.06;43.30;94191.28;4174603;28;20052;-59
2022/04/19 17:28:36;;;;;;;6.95;3.85;;;;;;;9.14;42.83;94194.72;4160527;28;20050;-58
2022/04/19 17:30:38;;;;;;;7.63;4.03;;;;;;;9.24;43.13;94202.38;4159876;28;20300;-60
2022/04/19 17:32:40;;;;;;;7.45;4.00;;;;;;;9.32;44.00;94202.38;4163780;28;20057;-58
2022/04/19 17:34:42;;;;;;;5.38;3.67;;;;;;;9.39;43.73;94202.53;4159485;28;20049;-59
2022/04/19 17:36:44;;;;;;;5.93;3.75;;;;;;;9.41;44.61;94208.44;4160026;28;20054;-54
2022/04/19 17:38:46;;;;;;;9.57;4.00;;;;;;;9.41;44.36;94209.25;4172021;28;20115;-57
2022/04/19 17:40:49;;;;;;;7.05;4.15;;;;;;;9.43;44.77;94212.50;4147166;28;20470;-58
2022/04/19 17:42:51;;;;;;;8.10;3.78;;;;;;;9.44;44.49;94221.16;4160801;28;20057;-59
2022/04/19 17:44:53;;;;;;;9.40;4.03;;;;;;;9.43;45.16;94227.38;4160400;28;20191;-58
2022/04/19 17:46:55;;;;;;;8.70;4.10;;;;;;;9.42;45.10;94229.19;4159879;28;20056;-60
2022/04/19 17:48:56;;;;;;;6.72;3.90;;;;;;;9.36;46.37;94226.41;4159831;28;20064;-59
2022/04/19 17:58:04;;;;;;;6.50;4.18;;;;;;;9.29;47.18;94236.69;4160227;28;20214;-61
2022/04/19 18:00:06;;;;;;;7.38;4.10;;;;;;;9.25;46.75;94243.22;4159492;28;20540;-59
2022/04/19 18:02:08;;;;;;;8.85;4.60;;;;;;;9.21;47.61;94241.91;4160009;28;20521;-62
2022/04/19 18:04:10;;;;;;;7.47;4.38;;;;;;;9.21;47.32;94245.34;4159062;28;20088;-61
2022/04/19 18:06:18;;;;;;;7.03;4.30;;;;;;;9.17;48.17;94251.88;4166962;28;20048;-57
2022/04/19 18:08:21;;;;;;;6.40;4.22;;;;;;;9.11;48.42;94249.91;4176569;28;20432;-58
2022/04/19 18:10:22;;;;;;;8.10;4.70;;;;;;;9.07;48.69;94255.59;4176752;28;20057;-60
2022/04/19 18:12:26;;;;;;;10.57;4.95;;;;;;;8.97;48.94;94256.56;4175835;28;20547;-57
2022/04/19 18:14:27;;;;;;;7.20;4.88;;;;;;;8.91;49.02;94251.19;4160030;28;20107;-60
2022/04/19 18:16:29;;;;;;;13.07;5.72;;;;;;;8.87;49.67;94261.13;4159651;28;20057;-60
2022/04/19 18:18:31;;;;;;;11.23;7.32;;;;;;;8.82;49.46;94258.97;4160387;28;20046;-60
2022/04/19 18:20:33;;;;;;;12.77;7.10;;;;;;;8.78;49.05;94260.28;4159647;28;20050;-59
2022/04/19 18:25:10;;;;;;;10.63;6.68;;;;;;;8.82;49.59;94260.78;4159495;28;20057;-58
2022/04/19 18:27:12;;;;;;;11.73;7.97;;;;;;;8.89;49.49;94274.84;4160136;28;20054;-58
2022/04/19 18:29:13;;;;;;;14.20;8.25;;;;;;;8.89;48.57;94269.63;4174771;28;20294;-59
2022/04/19 18:31:18;;;;;;;17.02;8.68;;;;;;;8.87;48.43;94276.78;4174837;28;20128;-58
2022/04/19 18:33:21;;;;;;;15.85;8.18;;;;;;;8.82;49.54;94279.88;4159108;28;20136;-57
2022/04/19 18:35:22;;;;;;;15.70;8.52;;;;;;;8.81;49.10;94273.00;4161893;28;20053;-57
2022/04/19 18:37:28;;;;;;;15.20;8.27;;;;;;;8.81;49.46;94266.97;4158973;28;20532;-59
2022/04/19 18:39:29;;;;;;;15.77;8.77;;;;;;;8.78;50.28;94277.75;4160677;28;20433;-58
2022/04/19 18:41:31;;;;;;;14.65;10.05;;;;;;;8.75;50.16;94278.03;4164783;28;20103;-60